MacFarlan, West Virginia
Current Conditions -  °F | °C
As of 12:53 PM on Friday 19 Dec 2014 (Local Time) from KPKB Reporting Station
Overcast Overcast  
Wind Chill: 26°   Ceiling: 1900
Heat Index: 31°   Visibility: 10mi
Dew Point: 22°   Wind: 5mph
Humidity: 69%   Direction: 300°WNW
Pressure: 30.27"   Gusts: NA
Location:  39.08°N, 81.2°W
Report Text: KPKB 191753Z 30004KT 10SM OVC019 M01/M06 A3027 RMK AO2 SLP258 T10061056 11006 21022 58013
Loading
Personal Weather Stations






























Interactive Weather Map New forecast layout! Learn more

10-Day Weather Forecast

Advertisements
Track Severe Weather on mobile